createdAt,value
2023-03-01T00:00:09.194Z,102800.63
2023-03-01T00:05:14.349Z,102806.38
2023-03-01T00:10:17.356Z,102805.78
2023-03-01T00:15:21.453Z,102806.06
2023-03-01T00:20:24.194Z,102795.16
2023-03-01T00:25:27.418Z,102786.31
2023-03-01T00:30:31.548Z,102793.59
2023-03-01T00:35:34.554Z,102800.13
2023-03-01T00:40:37.851Z,102801.47
2023-03-01T00:45:41.927Z,102791.03
2023-03-01T00:50:44.678Z,102784.72
2023-03-01T00:55:47.416Z,102789.63
2023-03-01T01:00:51.602Z,102783.38
2023-03-01T01:05:54.778Z,102787.88
2023-03-01T01:10:57.552Z,102780.72
2023-03-01T01:16:04.126Z,102777.44
2023-03-01T01:21:09.419Z,102775.81
2023-03-01T01:26:15.015Z,102761.00
2023-03-01T01:31:20.285Z,102764.72
2023-03-01T01:36:23.078Z,102761.47
2023-03-01T01:41:27.502Z,102754.94
2023-03-01T01:46:34.617Z,102752.81
2023-03-01T01:51:41.102Z,102740.69
2023-03-01T01:56:49.860Z,102743.19
2023-03-01T02:01:54.789Z,102736.56
2023-03-01T02:07:03.285Z,102739.63
2023-03-01T02:12:06.781Z,102732.34
2023-03-01T02:17:12.297Z,102725.31
2023-03-01T02:22:22.496Z,102728.84
2023-03-01T02:27:33.469Z,102732.13
2023-03-01T02:32:37.762Z,102730.94
2023-03-01T02:37:41.973Z,102725.31
2023-03-01T02:42:51.261Z,102728.22
2023-03-01T02:47:57.850Z,102727.38
2023-03-01T02:53:04.816Z,102732.06
2023-03-01T02:58:07.773Z,102721.84
2023-03-01T03:03:15.052Z,102704.78
2023-03-01T03:08:24.929Z,102708.16
2023-03-01T03:13:29.472Z,102716.66
2023-03-01T03:18:33.725Z,102713.69
2023-03-01T03:23:37.052Z,102704.69
2023-03-01T03:28:41.039Z,102709.19
2023-03-01T03:33:45.203Z,102696.41
2023-03-01T03:38:48.414Z,102696.88
2023-03-01T03:43:51.135Z,102696.88
2023-03-01T03:48:55.253Z,102688.47
2023-03-01T03:53:58.048Z,102693.34
2023-03-01T03:59:00.746Z,102681.84
2023-03-01T04:04:05.364Z,102679.88
2023-03-01T04:09:08.627Z,102672.59
2023-03-01T04:14:11.962Z,102671.28
2023-03-01T04:19:16.157Z,102669.06
2023-03-01T04:24:18.942Z,102664.34
2023-03-01T04:29:21.859Z,102663.81
2023-03-01T04:34:27.794Z,102670.75
2023-03-01T04:39:30.540Z,102673.34
2023-03-01T04:44:33.321Z,102670.88
2023-03-01T04:49:37.513Z,102672.28
2023-03-01T04:54:40.413Z,102672.47
2023-03-01T04:59:43.115Z,102671.56
2023-03-01T05:04:47.287Z,102664.50
2023-03-01T05:09:50.489Z,102668.09
2023-03-01T05:14:53.240Z,102661.88
2023-03-01T05:20:00.552Z,102653.28
2023-03-01T05:25:03.332Z,102659.91
2023-03-01T05:30:14.643Z,102663.25
2023-03-01T05:35:20.201Z,102658.31
2023-03-01T05:40:25.167Z,102665.50
2023-03-01T05:45:29.259Z,102663.03
2023-03-01T05:50:36.004Z,102652.16
2023-03-01T05:55:39.980Z,102645.03
2023-03-01T06:00:43.335Z,102642.56
2023-03-01T06:05:47.773Z,102640.53
2023-03-01T06:10:50.598Z,102648.16
2023-03-01T06:15:53.783Z,102636.28
2023-03-01T06:20:58.694Z,102643.06
2023-03-01T06:26:02.360Z,102630.91
2023-03-01T06:31:10.146Z,102641.13
2023-03-01T06:36:14.473Z,102638.91
2023-03-01T06:41:17.489Z,102647.41
2023-03-01T06:46:20.362Z,102652.13
2023-03-01T06:51:24.472Z,102646.41
2023-03-01T06:56:27.233Z,102664.97
2023-03-01T07:01:30.571Z,102654.09
2023-03-01T07:06:35.051Z,102657.78
2023-03-01T07:11:37.917Z,102648.72
2023-03-01T07:16:40.680Z,102643.41
2023-03-01T07:21:44.921Z,102642.34
2023-03-01T07:26:50.627Z,102633.59
2023-03-01T07:31:53.754Z,102636.38
2023-03-01T07:36:57.968Z,102621.25
2023-03-01T07:42:00.677Z,102621.47
2023-03-01T07:47:03.563Z,102622.19
2023-03-01T07:52:07.810Z,102625.50
2023-03-01T07:57:10.580Z,102628.81
2023-03-01T08:02:13.496Z,102624.94
2023-03-01T08:07:17.556Z,102622.03
2023-03-01T08:12:20.322Z,102634.56
2023-03-01T08:17:23.233Z,102648.47
2023-03-01T08:22:27.409Z,102643.13
2023-03-01T08:27:30.232Z,102634.25
2023-03-01T08:32:38.275Z,102627.69
2023-03-01T08:37:42.398Z,102629.59
2023-03-01T08:42:45.286Z,102626.97
2023-03-01T08:47:48.022Z,102617.13
2023-03-01T08:52:52.477Z,102613.78
2023-03-01T08:57:55.184Z,102625.22
2023-03-01T09:02:57.955Z,102626.34
2023-03-01T09:08:02.185Z,102625.50
2023-03-01T09:13:04.966Z,102618.97
2023-03-01T09:18:07.796Z,102619.72
2023-03-01T09:23:11.843Z,102630.31
2023-03-01T09:28:28.900Z,102621.88
2023-03-01T09:33:34.166Z,102628.78
2023-03-01T09:38:38.444Z,102625.50
2023-03-01T09:43:46.809Z,102626.16
2023-03-01T09:48:54.496Z,102620.22
2023-03-01T09:53:59.654Z,102617.44
2023-03-01T09:59:13.599Z,102608.50
2023-03-01T10:04:30.341Z,102624.28
2023-03-01T10:09:37.004Z,102620.19
2023-03-01T10:14:47.269Z,102618.81
2023-03-01T10:19:49.987Z,102623.13
2023-03-01T10:24:55.370Z,102615.78
2023-03-01T10:30:20.787Z,102624.03
2023-03-01T10:35:26.214Z,102618.88
2023-03-01T10:40:30.798Z,102609.84
2023-03-01T10:45:36.829Z,102612.06
2023-03-01T10:50:42.403Z,102613.94
2023-03-01T10:55:46.660Z,102607.72
2023-03-01T11:00:52.267Z,102614.88
2023-03-01T11:05:59.246Z,102608.59
2023-03-01T11:11:21.916Z,102601.41
2023-03-01T11:16:34.389Z,102601.13
2023-03-01T11:21:40.970Z,102592.72
2023-03-01T11:26:49.524Z,102588.53
2023-03-01T11:31:57.841Z,102583.69
2023-03-01T11:37:05.033Z,102581.22
2023-03-01T11:42:19.065Z,102585.38
2023-03-01T11:47:41.239Z,102580.25
2023-03-01T11:52:53.189Z,102569.91
2023-03-01T11:58:20.096Z,102569.91
2023-03-01T12:03:32.842Z,102563.47
2023-03-01T12:08:39.892Z,102553.00
2023-03-01T12:14:09.512Z,102551.53
2023-03-01T12:19:45.455Z,102542.09
2023-03-01T12:25:03.101Z,102539.88
2023-03-01T12:30:27.800Z,102533.63
2023-03-01T12:36:00.721Z,102525.72
2023-03-01T12:41:29.830Z,102513.25
2023-03-01T12:46:54.094Z,102516.53
2023-03-01T12:52:01.547Z,102505.84
2023-03-01T12:57:11.561Z,102494.38
2023-03-01T13:02:24.444Z,102500.00
2023-03-01T13:07:32.634Z,102494.97
2023-03-01T13:12:53.216Z,102488.25
2023-03-01T13:17:58.868Z,102486.16
2023-03-01T13:23:09.469Z,102482.19
2023-03-01T13:28:43.431Z,102482.19
2023-03-01T13:33:48.817Z,102478.53
2023-03-01T13:38:59.009Z,102470.78
2023-03-01T13:44:01.825Z,102472.78
2023-03-01T13:49:06.120Z,102461.50
2023-03-01T13:54:14.342Z,102456.94
2023-03-01T13:59:19.132Z,102464.00
2023-03-01T14:04:26.588Z,102465.66
2023-03-01T14:09:32.482Z,102459.44
2023-03-01T14:14:49.245Z,102442.56
2023-03-01T14:19:59.443Z,102436.94
2023-03-01T14:25:04.526Z,102436.75
2023-03-01T14:30:16.819Z,102424.84
2023-03-01T14:35:25.420Z,102430.34
2023-03-01T14:40:30.484Z,102418.13
2023-03-01T14:45:33.413Z,102416.44
2023-03-01T14:50:43.187Z,102413.09
2023-03-01T14:55:49.455Z,102403.91
2023-03-01T15:00:54.540Z,102395.72
2023-03-01T15:05:59.104Z,102383.69
2023-03-01T15:11:07.994Z,102383.06
2023-03-01T15:16:14.377Z,102380.63
2023-03-01T15:21:20.973Z,102377.16
2023-03-01T15:26:27.240Z,102374.09
2023-03-01T15:31:33.421Z,102371.66
2023-03-01T15:36:44.523Z,102375.28
2023-03-01T15:41:49.537Z,102371.16
2023-03-01T15:46:52.801Z,102366.63
2023-03-01T15:51:57.362Z,102367.56
2023-03-01T15:57:01.272Z,102372.91
2023-03-01T16:02:04.042Z,102371.41
2023-03-01T16:07:08.553Z,102367.34
2023-03-01T16:12:15.924Z,102373.53
2023-03-01T16:17:18.774Z,102370.97
2023-03-01T16:22:26.102Z,102365.28
2023-03-01T16:27:29.085Z,102360.59
2023-03-01T16:32:31.905Z,102360.94
2023-03-01T16:37:37.174Z,102359.97
2023-03-01T16:42:40.674Z,102363.78
2023-03-01T16:47:45.021Z,102372.84
2023-03-01T16:52:49.249Z,102359.53
2023-03-01T16:57:52.229Z,102360.38
2023-03-01T17:02:56.120Z,102365.63
2023-03-01T17:08:00.822Z,102375.19
2023-03-01T17:13:03.605Z,102376.19
2023-03-01T17:18:06.795Z,102380.47
2023-03-01T17:23:10.922Z,102383.97
2023-03-01T17:28:14.737Z,102389.53
2023-03-01T17:33:18.123Z,102379.31
2023-03-01T17:38:22.319Z,102382.47
2023-03-01T17:43:25.138Z,102374.31
2023-03-01T17:48:28.290Z,102385.03
2023-03-01T17:53:32.403Z,102390.09
2023-03-01T17:58:35.542Z,102403.88
2023-03-01T18:03:39.566Z,102411.34
2023-03-01T18:08:45.241Z,102410.56
2023-03-01T18:13:49.240Z,102412.53
2023-03-01T18:18:55.382Z,102410.72
2023-03-01T18:24:00.627Z,102411.91
2023-03-01T18:29:04.683Z,102409.00
2023-03-01T18:34:07.692Z,102410.19
2023-03-01T18:39:11.829Z,102409.44
2023-03-01T18:44:14.938Z,102416.22
2023-03-01T18:49:18.250Z,102415.63
2023-03-01T18:54:22.378Z,102421.16
2023-03-01T18:59:25.298Z,102419.44
2023-03-01T19:04:28.038Z,102424.69
2023-03-01T19:09:32.316Z,102430.03
2023-03-01T19:14:35.451Z,102436.78
2023-03-01T19:19:40.236Z,102440.84
2023-03-01T19:24:44.593Z,102439.72
2023-03-01T19:29:47.345Z,102457.31
2023-03-01T19:34:50.125Z,102446.50
2023-03-01T19:39:54.289Z,102453.47
2023-03-01T19:44:57.129Z,102451.81
2023-03-01T19:50:00.206Z,102459.69
2023-03-01T19:55:09.919Z,102445.03
2023-03-01T20:00:14.176Z,102450.50
2023-03-01T20:05:17.399Z,102455.97
2023-03-01T20:10:26.291Z,102466.59
2023-03-01T20:15:31.881Z,102463.88
2023-03-01T20:20:34.752Z,102456.13
2023-03-01T20:25:41.247Z,102452.91
2023-03-01T20:30:44.582Z,102446.09
2023-03-01T20:35:47.360Z,102436.06
2023-03-01T20:40:51.437Z,102445.69
2023-03-01T20:45:54.279Z,102456.03
2023-03-01T20:51:01.919Z,102452.09
2023-03-01T20:56:07.484Z,102457.69
2023-03-01T21:01:11.821Z,102454.91
2023-03-01T21:06:14.665Z,102451.25
2023-03-01T21:11:19.410Z,102448.81
2023-03-01T21:16:22.688Z,102440.41
2023-03-01T21:21:25.686Z,102454.66
2023-03-01T21:26:29.797Z,102457.53
2023-03-01T21:31:34.826Z,102453.66
2023-03-01T21:36:37.644Z,102443.00
2023-03-01T21:41:41.723Z,102452.66
2023-03-01T21:46:44.443Z,102452.09
2023-03-01T21:51:47.231Z,102449.34
2023-03-01T21:56:51.439Z,102447.28
2023-03-01T22:01:54.168Z,102462.91
2023-03-01T22:06:56.887Z,102458.19
2023-03-01T22:12:02.557Z,102448.81
2023-03-01T22:17:05.641Z,102457.56
2023-03-01T22:22:08.446Z,102457.00
2023-03-01T22:27:12.580Z,102452.66
2023-03-01T22:32:15.390Z,102443.69
2023-03-01T22:37:18.161Z,102434.00
2023-03-01T22:42:22.260Z,102442.09
2023-03-01T22:47:35.911Z,102431.22
2023-03-01T22:52:39.727Z,102428.88
2023-03-01T22:57:43.792Z,102424.63
2023-03-01T23:02:46.621Z,102433.25
2023-03-01T23:07:49.412Z,102435.72
2023-03-01T23:12:55.154Z,102443.81
2023-03-01T23:17:57.950Z,102433.47
2023-03-01T23:23:01.505Z,102426.88
2023-03-01T23:28:07.125Z,102432.09
2023-03-01T23:33:09.818Z,102429.59
2023-03-01T23:38:12.575Z,102425.94
2023-03-01T23:43:17.124Z,102434.50
2023-03-01T23:48:20.184Z,102437.91
2023-03-01T23:53:23.666Z,102432.34
2023-03-01T23:58:29.253Z,102423.88
